Time;durP1;ratioP1;P1;durP2;ratioP2;P2;SDS_P1;SDS_P2;PMS_P1;PMS_P2;Temp;Humidity;BMP_temperature;BMP_pressure;BME280_temperature;BME280_humidity;BME280_pressure;Samples;Min_cycle;Max_cycle;Signal;HPM_P1;HPM_P2
2023/03/15 00:00:08;;;;;;;4.95;2.05;;;;;;;2.26;100.00;101181.47;5117414;27;20478;-65
2023/03/15 00:02:34;;;;;;;2.75;1.95;;;;;;;2.27;100.00;101175.34;5116966;27;20122;-65
2023/03/15 00:04:59;;;;;;;3.83;1.60;;;;;;;2.28;100.00;101186.66;5111343;27;20118;-64
2023/03/15 00:07:24;;;;;;;2.20;1.70;;;;;;;2.28;100.00;101184.03;5117822;27;20563;-65
2023/03/15 00:09:52;;;;;;;4.50;2.05;;;;;;;2.29;100.00;101176.13;5110139;28;20032;-65
2023/03/15 00:12:17;;;;;;;2.50;1.63;;;;;;;2.30;100.00;101176.97;5116774;27;20098;-65
2023/03/15 00:14:43;;;;;;;4.10;1.77;;;;;;;2.31;100.00;101171.69;5115972;28;20039;-64
2023/03/15 00:17:08;;;;;;;3.95;1.80;;;;;;;2.33;100.00;101172.50;5117788;27;20038;-63
2023/03/15 00:19:33;;;;;;;5.70;2.10;;;;;;;2.36;100.00;101188.09;5115998;28;20015;-62
2023/03/15 00:21:59;;;;;;;5.78;2.30;;;;;;;2.37;100.00;101187.19;5107207;27;20538;-63
2023/03/15 00:24:24;;;;;;;2.85;1.83;;;;;;;2.39;100.00;101180.13;5115326;27;20421;-62
2023/03/15 00:26:50;;;;;;;3.15;1.98;;;;;;;2.41;100.00;101185.31;5114724;27;20416;-63
2023/03/15 00:29:15;;;;;;;6.47;2.15;;;;;;;2.41;100.00;101187.91;5093177;28;20111;-63
2023/03/15 00:31:40;;;;;;;4.55;2.00;;;;;;;2.42;100.00;101194.03;5116151;27;20023;-63
2023/03/15 00:34:05;;;;;;;3.25;1.83;;;;;;;2.41;100.00;101190.53;5109507;27;20111;-63
2023/03/15 00:36:31;;;;;;;3.85;1.90;;;;;;;2.42;100.00;101189.66;5110857;27;20500;-63
2023/03/15 00:38:57;;;;;;;5.32;2.05;;;;;;;2.41;100.00;101193.16;5115249;28;20023;-63
2023/03/15 00:41:23;;;;;;;2.45;1.83;;;;;;;2.40;100.00;101192.31;5113998;28;20115;-63
2023/03/15 00:43:49;;;;;;;3.22;1.90;;;;;;;2.42;100.00;101188.81;5115436;28;20042;-63
2023/03/15 00:46:16;;;;;;;7.30;2.03;;;;;;;2.41;100.00;101193.16;5114627;28;20371;-63
2023/03/15 00:48:41;;;;;;;3.35;1.95;;;;;;;2.42;100.00;101183.56;5108987;28;20032;-63
2023/03/15 00:51:10;;;;;;;5.25;2.00;;;;;;;2.42;100.00;101187.03;5110212;28;20085;-62
2023/03/15 00:53:38;;;;;;;6.18;1.90;;;;;;;2.39;100.00;101192.38;5114702;27;20028;-63
2023/03/15 00:56:09;;;;;;;3.58;1.80;;;;;;;2.35;100.00;101183.78;5116934;27;20031;-63
2023/03/15 00:58:34;;;;;;;6.88;2.40;;;;;;;2.33;100.00;101193.47;5116765;27;20023;-63
2023/03/15 01:01:07;;;;;;;6.38;2.60;;;;;;;2.31;100.00;101187.41;5115012;28;20080;-64
2023/03/15 01:03:33;;;;;;;5.55;2.47;;;;;;;2.33;100.00;101193.47;5108600;27;20104;-64
2023/03/15 01:05:58;;;;;;;2.95;2.00;;;;;;;2.35;100.00;101188.16;5117225;27;20110;-64
2023/03/15 01:08:24;;;;;;;3.65;2.42;;;;;;;2.34;100.00;101191.69;5113990;28;20088;-64
2023/03/15 01:10:49;;;;;;;3.88;2.40;;;;;;;2.33;100.00;101190.84;5118888;27;20027;-64
2023/03/15 01:13:14;;;;;;;6.80;2.60;;;;;;;2.34;100.00;101195.16;5093818;28;20032;-64
2023/03/15 01:15:44;;;;;;;7.30;3.00;;;;;;;2.35;100.00;101189.03;5114385;28;20475;-62
2023/03/15 01:18:10;;;;;;;10.68;3.92;;;;;;;2.35;100.00;101204.75;5117741;27;20496;-62
2023/03/15 01:20:35;;;;;;;9.30;3.97;;;;;;;2.33;100.00;101201.34;5116616;27;20063;-62
2023/03/15 01:23:00;;;;;;;8.85;4.97;;;;;;;2.32;100.00;101201.38;5114401;28;20050;-62
2023/03/15 01:25:26;;;;;;;11.60;5.30;;;;;;;2.35;100.00;101203.91;5114080;28;20032;-62
2023/03/15 01:27:51;;;;;;;10.73;6.25;;;;;;;2.34;100.00;101205.66;5110024;28;20121;-62
2023/03/15 01:30:16;;;;;;;9.90;6.60;;;;;;;2.34;100.00;101207.41;5114134;28;20358;-62
2023/03/15 01:32:41;;;;;;;13.07;7.47;;;;;;;2.32;100.00;101212.72;5114313;28;20024;-62
2023/03/15 01:35:07;;;;;;;11.63;7.72;;;;;;;2.32;100.00;101219.72;5112473;27;20076;-62
2023/03/15 01:37:33;;;;;;;13.00;7.93;;;;;;;2.31;100.00;101208.38;5104997;28;20032;-62
2023/03/15 01:39:58;;;;;;;11.48;8.15;;;;;;;2.30;100.00;101217.16;5110210;27;20500;-63
2023/03/15 01:42:24;;;;;;;11.60;9.15;;;;;;;2.28;100.00;101224.25;5114006;27;20055;-62
2023/03/15 01:44:49;;;;;;;9.88;7.93;;;;;;;2.27;100.00;101225.13;5103603;27;20020;-63
2023/03/15 01:47:14;;;;;;;11.02;9.57;;;;;;;2.26;100.00;101225.19;5114430;27;20035;-63
2023/03/15 01:49:40;;;;;;;13.23;9.25;;;;;;;2.27;100.00;101224.28;5114353;27;20047;-63
2023/03/15 01:52:14;;;;;;;10.68;9.55;;;;;;;2.28;100.00;101215.50;5103409;28;20480;-64
2023/03/15 01:54:48;;;;;;;13.95;9.80;;;;;;;2.25;100.00;101229.59;5113858;28;20486;-63
2023/03/15 01:57:23;;;;;;;10.80;9.65;;;;;;;2.25;100.00;101232.22;5114908;27;20028;-63
2023/03/15 01:59:57;;;;;;;11.27;10.18;;;;;;;2.26;100.00;101233.91;5115132;27;20062;-63
2023/03/15 02:02:24;;;;;;;13.30;10.95;;;;;;;2.27;100.00;101240.00;5115554;27;20053;-63
2023/03/15 02:04:56;;;;;;;12.57;10.88;;;;;;;2.27;100.00;101235.63;5114697;27;20540;-63
2023/03/15 02:07:25;;;;;;;14.65;10.85;;;;;;;2.27;100.00;101237.41;5115774;27;20102;-63
2023/03/15 02:10:00;;;;;;;15.33;11.53;;;;;;;2.30;100.00;101250.38;5100387;28;20394;-63
2023/03/15 02:12:29;;;;;;;13.82;11.63;;;;;;;2.27;100.00;101256.59;5110227;27;20032;-63
2023/03/15 02:14:54;;;;;;;14.52;12.32;;;;;;;2.30;100.00;101258.22;5114510;27;20168;-63
2023/03/15 02:17:24;;;;;;;14.18;12.05;;;;;;;2.28;100.00;101257.44;5113446;27;20561;-63
2023/03/15 02:20:04;;;;;;;14.57;13.00;;;;;;;2.27;100.00;101256.59;5113101;28;20034;-63
2023/03/15 02:22:32;;;;;;;15.20;13.60;;;;;;;2.25;100.00;101260.16;5114295;27;20023;-63
2023/03/15 02:25:09;;;;;;;17.27;13.45;;;;;;;2.20;100.00;101257.72;5109857;28;20110;-63
2023/03/15 02:27:35;;;;;;;15.10;13.52;;;;;;;2.19;100.00;101258.63;5113406;27;20085;-63
2023/03/15 02:30:03;;;;;;;16.77;13.90;;;;;;;2.18;100.00;101265.63;5113889;27;20035;-63
2023/03/15 02:32:30;;;;;;;18.63;13.73;;;;;;;2.19;100.00;101269.94;5112872;27;20030;-63
2023/03/15 02:34:55;;;;;;;17.25;12.55;;;;;;;2.21;100.00;101260.28;5113153;28;20039;-63
2023/03/15 02:37:20;;;;;;;12.20;10.95;;;;;;;2.22;100.00;101263.75;5113462;27;20077;-63
2023/03/15 02:39:46;;;;;;;11.35;10.15;;;;;;;2.22;100.00;101258.50;5108127;27;20449;-63
2023/03/15 02:42:13;;;;;;;13.63;9.88;;;;;;;2.22;100.00;101266.38;5102183;28;20051;-63
2023/03/15 02:44:42;;;;;;;16.05;10.55;;;;;;;2.19;100.00;101267.31;5112601;28;20031;-63
2023/03/15 02:47:25;;;;;;;12.02;10.65;;;;;;;2.23;100.00;101273.31;5113166;27;20105;-63
2023/03/15 02:49:52;;;;;;;12.52;11.00;;;;;;;2.19;100.00;101272.56;5112429;28;20122;-63
2023/03/15 02:52:19;;;;;;;12.32;10.43;;;;;;;2.17;100.00;101278.78;5113590;27;20027;-62
2023/03/15 02:54:44;;;;;;;11.15;9.82;;;;;;;2.15;100.00;101277.97;5112317;28;20023;-62
2023/03/15 02:57:14;;;;;;;11.00;9.88;;;;;;;2.13;100.00;101282.41;5105409;28;20542;-62
2023/03/15 02:59:41;;;;;;;12.40;10.65;;;;;;;2.09;100.00;101271.19;5114348;27;20046;-62
2023/03/15 03:02:10;;;;;;;11.60;10.40;;;;;;;2.09;100.00;101286.91;5105632;28;20035;-62
2023/03/15 03:04:36;;;;;;;11.70;10.35;;;;;;;2.09;100.00;101294.75;5111603;28;20110;-63
2023/03/15 03:07:01;;;;;;;11.98;10.77;;;;;;;2.09;100.00;101307.03;5113310;28;20102;-62
2023/03/15 03:09:26;;;;;;;12.60;10.73;;;;;;;2.09;100.00;101305.25;5111438;28;20024;-64
2023/03/15 03:11:52;;;;;;;12.27;11.07;;;;;;;2.09;100.00;101302.63;5113074;28;20035;-62
2023/03/15 03:14:17;;;;;;;11.77;10.57;;;;;;;2.08;100.00;101313.16;5112890;28;20080;-62
2023/03/15 03:16:42;;;;;;;11.48;10.27;;;;;;;2.08;100.00;101327.09;5112234;28;20083;-62
2023/03/15 03:19:13;;;;;;;11.50;10.30;;;;;;;2.05;100.00;101324.63;5111667;28;20401;-62
2023/03/15 03:21:42;;;;;;;13.15;10.90;;;;;;;2.03;100.00;101329.03;5113448;28;20483;-62
2023/03/15 03:24:07;;;;;;;12.40;10.50;;;;;;;2.00;100.00;101332.63;5105459;28;20042;-62
2023/03/15 03:26:33;;;;;;;11.18;10.07;;;;;;;2.00;100.00;101335.22;5112628;28;20613;-62
2023/03/15 03:28:58;;;;;;;10.38;9.38;;;;;;;1.98;100.00;101330.94;5112095;28;20028;-62
2023/03/15 03:31:26;;;;;;;13.20;10.93;;;;;;;1.90;100.00;101338.19;5112203;28;20016;-62
2023/03/15 03:33:51;;;;;;;11.60;10.45;;;;;;;1.90;100.00;101336.44;5111818;28;20030;-62
2023/03/15 03:36:17;;;;;;;13.52;10.20;;;;;;;1.87;100.00;101339.16;5112625;28;20027;-62
2023/03/15 03:38:44;;;;;;;11.57;10.38;;;;;;;1.84;100.00;101349.72;5094396;28;20038;-62
2023/03/15 03:41:11;;;;;;;11.77;10.68;;;;;;;1.80;100.00;101348.97;5112679;28;20078;-62
2023/03/15 03:43:37;;;;;;;11.27;10.18;;;;;;;1.77;100.00;101359.53;5110590;28;20034;-62
2023/03/15 03:46:03;;;;;;;11.68;10.48;;;;;;;1.74;100.00;101362.25;5114206;28;20420;-62
2023/03/15 03:48:28;;;;;;;12.15;10.95;;;;;;;1.70;100.00;101363.28;5113628;28;20102;-62
2023/03/15 03:50:54;;;;;;;11.77;10.57;;;;;;;1.66;100.00;101361.63;5111691;28;20217;-62
2023/03/15 03:53:19;;;;;;;12.68;11.18;;;;;;;1.63;100.00;101367.84;5114296;28;20513;-62
2023/03/15 03:55:45;;;;;;;11.88;10.45;;;;;;;1.64;100.00;101366.06;5112286;28;20093;-62
2023/03/15 03:58:11;;;;;;;11.30;10.27;;;;;;;1.63;100.00;101372.19;5105560;28;20027;-62
2023/03/15 04:00:36;;;;;;;11.40;10.30;;;;;;;1.60;100.00;101369.69;5112488;28;20389;-62
2023/03/15 04:03:02;;;;;;;11.45;10.30;;;;;;;1.58;100.00;101375.00;5113937;28;20481;-62
2023/03/15 04:05:28;;;;;;;11.02;9.93;;;;;;;1.56;100.00;101382.00;5114113;28;20031;-62
2023/03/15 04:07:53;;;;;;;10.88;9.77;;;;;;;1.53;100.00;101383.88;5114610;28;20080;-62
2023/03/15 04:10:25;;;;;;;10.88;9.77;;;;;;;1.51;100.00;101388.31;5113717;28;20038;-62
2023/03/15 04:12:52;;;;;;;11.30;9.25;;;;;;;1.45;100.00;101394.59;5113585;28;20031;-61
2023/03/15 04:15:21;;;;;;;11.75;10.55;;;;;;;1.43;100.00;101394.63;5112419;28;20111;-62
2023/03/15 04:17:47;;;;;;;11.15;10.05;;;;;;;1.41;100.00;101403.41;5108518;28;20024;-62
2023/03/15 04:20:12;;;;;;;13.25;10.30;;;;;;;1.36;100.00;101405.31;5105858;28;20432;-62
2023/03/15 04:22:38;;;;;;;10.98;9.85;;;;;;;1.33;100.00;101419.34;5112772;28;20035;-62
2023/03/15 04:25:04;;;;;;;10.90;9.82;;;;;;;1.27;100.00;101416.91;5113005;28;20024;-62
2023/03/15 04:27:29;;;;;;;10.80;9.70;;;;;;;1.24;100.00;101420.47;5114051;28;20024;-62
2023/03/15 04:29:54;;;;;;;10.93;9.32;;;;;;;1.21;100.00;101427.53;5112799;28;20024;-62
2023/03/15 04:32:20;;;;;;;10.80;9.57;;;;;;;1.17;100.00;101421.53;5109087;28;20395;-62
2023/03/15 04:34:50;;;;;;;12.30;10.25;;;;;;;1.13;100.00;101425.13;5096096;28;20028;-62
2023/03/15 04:37:16;;;;;;;12.07;9.98;;;;;;;1.10;100.00;101430.47;5109615;28;20441;-62
2023/03/15 04:39:41;;;;;;;11.80;9.80;;;;;;;1.07;100.00;101428.78;5113855;28;20016;-62
2023/03/15 04:42:07;;;;;;;11.75;10.43;;;;;;;1.06;100.00;101442.75;5111739;28;20391;-62
2023/03/15 04:44:32;;;;;;;10.20;9.13;;;;;;;1.02;100.00;101448.13;5114447;28;20039;-63
2023/03/15 04:46:58;;;;;;;11.27;9.20;;;;;;;1.00;100.00;101444.69;5114540;28;20041;-62
2023/03/15 04:49:23;;;;;;;11.38;10.02;;;;;;;0.99;100.00;101448.22;5116185;28;20019;-62
2023/03/15 04:51:48;;;;;;;11.82;10.63;;;;;;;0.96;100.00;101454.38;5115219;28;20024;-62
2023/03/15 04:54:13;;;;;;;12.50;10.30;;;;;;;0.92;100.00;101455.38;5116208;28;20036;-62
2023/03/15 04:56:40;;;;;;;10.00;9.00;;;;;;;0.91;100.00;101448.41;5115992;28;20072;-62
2023/03/15 04:59:06;;;;;;;10.68;9.27;;;;;;;0.87;100.00;101454.63;5116403;27;20393;-61
2023/03/15 05:01:32;;;;;;;10.18;9.15;;;;;;;0.86;100.00;101455.53;5115347;28;20098;-62
2023/03/15 05:03:57;;;;;;;10.20;9.02;;;;;;;0.85;100.00;101459.03;5116288;28;20059;-62
2023/03/15 05:06:23;;;;;;;10.13;9.00;;;;;;;0.82;100.00;101459.97;5112273;28;20012;-62
2023/03/15 05:08:48;;;;;;;9.88;8.38;;;;;;;0.79;100.00;101467.91;5106307;28;20028;-62
2023/03/15 05:11:13;;;;;;;10.98;9.43;;;;;;;0.76;100.00;101470.59;5116133;27;20526;-62
2023/03/15 05:13:39;;;;;;;11.10;8.75;;;;;;;0.76;100.00;101462.75;5108291;28;20032;-62
2023/03/15 05:16:04;;;;;;;9.88;8.88;;;;;;;0.72;100.00;101469.81;5105735;28;20027;-63
2023/03/15 05:18:29;;;;;;;10.50;9.32;;;;;;;0.72;100.00;101472.44;5115770;28;20061;-62
2023/03/15 05:20:55;;;;;;;9.27;8.30;;;;;;;0.71;100.00;101473.31;5115294;27;20016;-62
2023/03/15 05:23:22;;;;;;;10.48;8.55;;;;;;;0.67;100.00;101478.69;5115553;28;20028;-63
2023/03/15 05:25:55;;;;;;;10.13;9.00;;;;;;;0.66;100.00;101477.81;5114850;27;20798;-61
2023/03/15 05:28:22;;;;;;;9.35;8.35;;;;;;;0.65;100.00;101480.44;5103361;27;20036;-62
2023/03/15 05:30:48;;;;;;;10.60;8.98;;;;;;;0.62;100.00;101484.03;5112336;27;20496;-62
2023/03/15 05:33:14;;;;;;;13.68;9.43;;;;;;;0.61;100.00;101484.91;5114926;27;20023;-62
2023/03/15 05:35:40;;;;;;;12.52;9.38;;;;;;;0.59;100.00;101488.47;5114133;28;20589;-62
2023/03/15 05:38:05;;;;;;;12.43;9.57;;;;;;;0.57;100.00;101485.88;5113349;28;20416;-63
2023/03/15 05:40:31;;;;;;;12.95;10.10;;;;;;;0.57;100.00;101490.25;5114790;27;20023;-63
2023/03/15 05:42:57;;;;;;;11.52;9.60;;;;;;;0.54;100.00;101489.44;5115098;27;20054;-63
2023/03/15 05:45:22;;;;;;;11.10;9.20;;;;;;;0.51;100.00;101499.94;5113784;27;20481;-63
2023/03/15 05:47:48;;;;;;;11.73;9.60;;;;;;;0.51;100.00;101504.31;5114210;28;20038;-63
2023/03/15 05:50:13;;;;;;;11.90;9.82;;;;;;;0.48;100.00;101502.66;5116799;27;20023;-63
2023/03/15 05:52:39;;;;;;;12.23;9.02;;;;;;;0.46;100.00;101504.44;5113587;28;20047;-63
2023/03/15 05:55:04;;;;;;;16.77;9.43;;;;;;;0.45;100.00;101507.97;5096362;28;20024;-63
2023/03/15 05:57:30;;;;;;;14.27;9.32;;;;;;;0.44;100.00;101511.47;5113969;28;20051;-63
2023/03/15 05:59:55;;;;;;;11.15;9.43;;;;;;;0.44;100.00;101511.47;5112311;28;20028;-62
2023/03/15 06:02:21;;;;;;;11.85;9.18;;;;;;;0.42;100.00;101523.72;5112098;28;20072;-62
2023/03/15 06:04:46;;;;;;;13.43;9.65;;;;;;;0.40;100.00;101524.63;5112277;27;20020;-63
2023/03/15 06:07:11;;;;;;;13.30;9.98;;;;;;;0.36;100.00;101532.53;5115024;28;20055;-63
2023/03/15 06:09:36;;;;;;;10.07;8.98;;;;;;;0.36;100.00;101537.75;5114865;27;20020;-63
2023/03/15 06:12:02;;;;;;;12.25;9.75;;;;;;;0.34;100.00;101536.94;5094947;28;20034;-62
2023/03/15 06:14:27;;;;;;;14.25;10.40;;;;;;;0.35;100.00;101538.66;5114756;27;20110;-63
2023/03/15 06:16:53;;;;;;;14.32;9.95;;;;;;;0.35;100.00;101535.19;5110789;27;20536;-63
2023/03/15 06:19:20;;;;;;;11.90;9.77;;;;;;;0.32;100.00;101540.50;5113107;28;20106;-63
2023/03/15 06:21:45;;;;;;;14.07;10.43;;;;;;;0.32;100.00;101545.72;5115185;27;20024;-63
2023/03/15 06:24:11;;;;;;;14.95;9.93;;;;;;;0.33;100.00;101555.25;5113087;27;20416;-63
2023/03/15 06:26:36;;;;;;;13.18;10.00;;;;;;;0.35;100.00;101566.53;5094848;28;20031;-63
2023/03/15 06:29:02;;;;;;;15.52;10.85;;;;;;;0.39;100.00;101568.19;5112832;28;20049;-63
2023/03/15 06:31:27;;;;;;;15.40;11.48;;;;;;;0.44;100.00;101574.19;5113394;28;20031;-63
2023/03/15 06:33:52;;;;;;;13.80;10.73;;;;;;;0.44;100.00;101578.56;5112438;28;20453;-63
2023/03/15 06:36:17;;;;;;;12.88;10.88;;;;;;;0.47;100.00;101596.78;5113458;28;20028;-63
2023/03/15 06:38:43;;;;;;;14.02;11.20;;;;;;;0.49;100.00;101585.38;5115001;27;20036;-63
2023/03/15 06:41:08;;;;;;;14.32;11.32;;;;;;;0.53;100.00;101589.66;5113391;27;20177;-63
2023/03/15 06:43:34;;;;;;;15.52;11.90;;;;;;;0.55;100.00;101590.47;5114094;27;20497;-63
2023/03/15 06:45:59;;;;;;;15.77;11.98;;;;;;;0.62;100.00;101596.44;5113271;27;20068;-63
2023/03/15 06:48:26;;;;;;;15.57;11.73;;;;;;;0.67;100.00;101604.19;5114597;27;20035;-63
2023/03/15 06:50:51;;;;;;;15.68;11.63;;;;;;;0.72;100.00;101604.94;5111225;28;20544;-61
2023/03/15 06:53:16;;;;;;;15.68;11.98;;;;;;;0.76;100.00;101618.78;5111539;28;20039;-63
2023/03/15 06:55:43;;;;;;;16.58;12.77;;;;;;;0.78;100.00;101617.84;5112512;28;20024;-63
2023/03/15 06:58:08;;;;;;;18.67;12.68;;;;;;;0.81;100.00;101611.69;5108682;27;20036;-63
2023/03/15 07:00:34;;;;;;;16.75;12.45;;;;;;;0.86;100.00;101623.75;5121738;27;20094;-63
2023/03/15 07:02:59;;;;;;;14.43;11.88;;;;;;;0.89;100.00;101626.28;5108823;28;20050;-63
2023/03/15 07:05:25;;;;;;;17.52;13.10;;;;;;;0.95;100.00;101633.16;5114512;27;20034;-63
2023/03/15 07:07:50;;;;;;;16.55;12.85;;;;;;;0.98;100.00;101630.44;5115044;27;20074;-63
2023/03/15 07:10:16;;;;;;;15.50;12.23;;;;;;;1.00;100.00;101633.91;5111947;28;20016;-63
2023/03/15 07:12:41;;;;;;;15.27;11.73;;;;;;;1.04;100.00;101645.16;5113508;27;20370;-63
2023/03/15 07:15:07;;;;;;;15.35;12.65;;;;;;;1.07;100.00;101648.53;5110357;28;20168;-63
2023/03/15 07:17:32;;;;;;;14.80;11.63;;;;;;;1.11;100.00;101651.94;5114759;27;20070;-63
2023/03/15 07:19:58;;;;;;;15.40;11.52;;;;;;;1.13;100.00;101652.75;5111103;27;20055;-63
2023/03/15 07:22:23;;;;;;;15.77;12.65;;;;;;;1.19;100.00;101660.47;5110829;28;20027;-63
2023/03/15 07:24:48;;;;;;;16.30;12.77;;;;;;;1.24;100.00;101661.22;5111463;28;20046;-63
2023/03/15 07:27:14;;;;;;;17.33;13.20;;;;;;;1.33;100.00;101661.88;5107710;28;20427;-62
2023/03/15 07:29:40;;;;;;;19.33;14.45;;;;;;;1.39;100.00;101665.22;5109880;28;20367;-63
2023/03/15 07:32:06;;;;;;;20.92;15.27;;;;;;;1.47;100.00;101671.13;5109143;28;20027;-63
2023/03/15 07:34:31;;;;;;;16.95;13.43;;;;;;;1.52;100.00;101671.00;5104695;28;20172;-63
2023/03/15 07:36:56;;;;;;;19.33;13.13;;;;;;;1.62;100.00;101671.63;5110321;28;20404;-63
2023/03/15 07:39:22;;;;;;;20.00;14.20;;;;;;;1.67;100.00;101683.69;5110188;28;20042;-63
2023/03/15 07:41:48;;;;;;;18.95;12.85;;;;;;;1.75;100.00;101685.25;5108243;28;20051;-63
2023/03/15 07:44:13;;;;;;;16.45;12.35;;;;;;;1.80;100.00;101686.00;5109533;28;20649;-63
2023/03/15 07:46:39;;;;;;;14.65;11.27;;;;;;;1.88;100.00;101681.38;5110046;28;20121;-63
2023/03/15 07:49:04;;;;;;;13.98;11.57;;;;;;;1.97;100.00;101691.63;5111779;28;20089;-63
2023/03/15 07:51:30;;;;;;;16.63;11.52;;;;;;;2.09;100.00;101700.91;5111042;28;20034;-63
2023/03/15 07:53:55;;;;;;;17.05;10.88;;;;;;;2.20;100.00;101703.25;5110726;28;20654;-63
2023/03/15 07:56:20;;;;;;;16.45;11.35;;;;;;;2.34;100.00;101711.56;5106528;28;20093;-63
2023/03/15 07:58:46;;;;;;;16.48;11.70;;;;;;;2.54;100.00;101711.00;5108910;28;20122;-63
2023/03/15 08:01:11;;;;;;;14.15;11.25;;;;;;;2.74;100.00;101717.44;5108051;28;20016;-63
2023/03/15 08:03:36;;;;;;;12.25;10.00;;;;;;;2.86;100.00;101713.59;5105401;28;20436;-63
2023/03/15 08:06:01;;;;;;;13.10;9.65;;;;;;;3.04;100.00;101720.88;5110067;28;20015;-63
2023/03/15 08:08:27;;;;;;;12.23;9.18;;;;;;;3.20;100.00;101723.91;5111488;28;20043;-62
2023/03/15 08:10:52;;;;;;;13.52;8.48;;;;;;;3.30;100.00;101733.19;5108382;28;20023;-62
2023/03/15 08:13:17;;;;;;;13.73;8.70;;;;;;;3.45;100.00;101742.34;5106866;28;20509;-62
2023/03/15 08:15:46;;;;;;;13.23;8.13;;;;;;;3.56;100.00;101741.16;5105192;28;20494;-63
2023/03/15 08:18:12;;;;;;;9.90;7.93;;;;;;;3.65;100.00;101744.31;5108401;28;20044;-61
2023/03/15 08:20:37;;;;;;;10.43;7.10;;;;;;;3.78;100.00;101738.66;5114416;27;20561;-62
2023/03/15 08:23:02;;;;;;;10.25;6.50;;;;;;;3.92;100.00;101736.41;5114548;28;20031;-62
2023/03/15 08:25:28;;;;;;;11.98;7.97;;;;;;;4.16;100.00;101742.56;5112478;27;20485;-62
2023/03/15 08:27:53;;;;;;;9.65;6.60;;;;;;;4.32;100.00;101749.94;5115564;27;20028;-63
2023/03/15 08:30:20;;;;;;;9.40;6.32;;;;;;;4.56;100.00;101759.59;5116316;27;20020;-61
2023/03/15 08:32:47;;;;;;;11.20;5.97;;;;;;;4.80;100.00;101760.44;5112931;28;20027;-62
2023/03/15 08:35:14;;;;;;;10.77;6.20;;;;;;;5.01;100.00;101763.16;5111980;27;20039;-62
2023/03/15 08:37:39;;;;;;;12.32;6.75;;;;;;;5.13;98.55;101760.06;5113492;28;20059;-62
2023/03/15 08:40:09;;;;;;;10.70;6.95;;;;;;;5.35;99.06;101765.31;5113301;27;20461;-63
2023/03/15 08:42:36;;;;;;;10.65;6.90;;;;;;;5.65;99.31;101761.53;5095012;28;20046;-62
2023/03/15 08:45:03;;;;;;;11.35;5.88;;;;;;;5.83;97.26;101773.06;5111942;27;20075;-62
2023/03/15 08:47:28;;;;;;;9.27;5.28;;;;;;;6.07;95.34;101773.84;5117371;27;20042;-62
2023/03/15 08:49:54;;;;;;;7.93;6.10;;;;;;;6.26;94.99;101782.69;5117612;27;20023;-62
2023/03/15 08:52:20;;;;;;;6.60;5.63;;;;;;;6.46;93.68;101778.31;5106751;28;20102;-62
2023/03/15 08:54:47;;;;;;;10.38;4.40;;;;;;;6.65;90.94;101789.75;5118674;27;20492;-62
2023/03/15 08:57:12;;;;;;;6.72;4.68;;;;;;;6.94;91.21;101782.28;5122062;27;20015;-61
2023/03/15 08:59:38;;;;;;;5.32;4.35;;;;;;;7.10;89.43;101782.44;5108011;28;20470;-62
2023/03/15 09:02:04;;;;;;;7.15;4.55;;;;;;;7.19;86.63;101782.03;5117941;27;20143;-62
2023/03/15 09:04:29;;;;;;;5.70;3.90;;;;;;;7.38;85.73;101789.91;5117621;27;20023;-62
2023/03/15 09:06:55;;;;;;;10.20;3.90;;;;;;;7.62;85.15;101788.81;5115963;27;20038;-62
2023/03/15 09:09:21;;;;;;;10.98;4.03;;;;;;;7.77;83.75;101788.88;5112255;28;20523;-62
2023/03/15 09:11:46;;;;;;;8.00;3.08;;;;;;;7.98;83.25;101791.41;5089184;28;20038;-61
2023/03/15 09:14:11;;;;;;;6.63;3.25;;;;;;;8.10;79.62;101788.13;5100504;28;20036;-61
2023/03/15 09:16:36;;;;;;;8.07;3.30;;;;;;;8.44;81.43;101786.44;5112989;28;20028;-61
2023/03/15 09:19:02;;;;;;;8.43;3.00;;;;;;;8.67;79.73;101793.13;5120911;27;20046;-62
2023/03/15 09:21:27;;;;;;;6.20;3.35;;;;;;;8.84;76.88;101789.59;5111267;27;20031;-62
2023/03/15 09:23:53;;;;;;;9.00;3.25;;;;;;;9.02;77.36;101790.38;5113770;27;20047;-62
2023/03/15 09:26:18;;;;;;;9.32;3.00;;;;;;;9.06;75.69;101791.09;5113706;28;20020;-62
2023/03/15 09:28:43;;;;;;;5.82;2.85;;;;;;;9.06;72.80;101785.78;5095767;27;20051;-62
2023/03/15 09:31:08;;;;;;;7.03;4.47;;;;;;;8.91;69.27;101795.41;5110065;28;20023;-63
2023/03/15 09:33:34;;;;;;;9.07;2.92;;;;;;;9.03;69.59;101804.50;5111519;28;20050;-62
2023/03/15 09:35:59;;;;;;;11.63;2.67;;;;;;;9.27;72.39;101786.38;5088742;28;20028;-63
2023/03/15 09:38:25;;;;;;;7.25;2.72;;;;;;;9.44;70.63;101780.97;5107293;28;20023;-62
2023/03/15 09:40:56;;;;;;;9.50;2.90;;;;;;;9.62;69.33;101791.47;5107035;28;20089;-62
2023/03/15 09:43:37;;;;;;;10.65;3.20;;;;;;;9.57;68.20;101783.75;5109358;27;20654;-62
2023/03/15 09:46:22;;;;;;;8.88;3.13;;;;;;;9.56;67.42;101787.38;5094638;28;20092;-63
2023/03/15 09:49:03;;;;;;;8.85;2.40;;;;;;;9.71;66.65;101795.38;5113784;28;20091;-62
2023/03/15 09:51:35;;;;;;;6.85;2.67;;;;;;;9.97;66.77;101789.41;5103332;28;20073;-62
2023/03/15 09:54:28;;;;;;;5.88;2.42;;;;;;;10.24;69.06;101790.50;5109166;28;20040;-62
2023/03/15 09:57:03;;;;;;;6.53;2.40;;;;;;;10.45;66.50;101797.22;5112534;28;20048;-62
2023/03/15 09:59:34;;;;;;;10.88;2.65;;;;;;;10.73;67.40;101796.38;5113153;28;20036;-63
2023/03/15 10:02:10;;;;;;;8.52;2.63;;;;;;;10.78;60.95;101798.75;5109118;28;20084;-62
2023/03/15 10:04:39;;;;;;;10.00;2.28;;;;;;;10.67;58.86;101798.56;5100124;28;20584;-62
2023/03/15 10:07:08;;;;;;;6.05;2.13;;;;;;;10.92;61.61;101790.78;5108627;28;20355;-62
2023/03/15 10:09:36;;;;;;;8.45;2.40;;;;;;;11.23;61.92;101794.13;5114614;27;20063;-63
2023/03/15 10:12:09;;;;;;;6.10;2.00;;;;;;;11.29;57.28;101784.91;5113437;28;20042;-62
2023/03/15 10:14:56;;;;;;;11.57;2.10;;;;;;;11.29;59.70;101788.44;5092916;28;20122;-63
2023/03/15 10:17:47;;;;;;;11.52;2.30;;;;;;;11.44;59.90;101788.38;5108205;28;20458;-61
2023/03/15 10:20:20;;;;;;;7.55;2.00;;;;;;;11.56;54.30;101784.09;5105038;27;20036;-63
2023/03/15 10:22:57;;;;;;;5.63;1.65;;;;;;;11.78;55.84;101789.66;5113049;27;20051;-62
2023/03/15 10:25:26;;;;;;;8.60;2.53;;;;;;;11.91;55.81;101791.53;5112343;27;20092;-63
2023/03/15 10:28:21;;;;;;;9.57;2.08;;;;;;;12.11;60.48;101790.22;5087975;28;20031;-62
2023/03/15 10:30:49;;;;;;;6.97;1.85;;;;;;;12.21;52.59;101793.94;5100803;27;20051;-62
2023/03/15 10:33:34;;;;;;;9.60;2.40;;;;;;;12.38;56.18;101785.63;5109594;28;20027;-63
2023/03/15 10:36:03;;;;;;;7.18;2.08;;;;;;;12.53;52.53;101786.38;5108476;28;20043;-62
2023/03/15 10:38:28;;;;;;;4.40;1.80;;;;;;;12.80;52.32;101789.88;5111306;28;20027;-62
2023/03/15 10:40:59;;;;;;;6.63;1.85;;;;;;;12.57;49.15;101798.56;5108954;28;20050;-63
2023/03/15 10:43:35;;;;;;;7.28;2.17;;;;;;;12.29;49.72;101793.41;5111973;27;20111;-62
2023/03/15 10:46:22;;;;;;;6.43;1.88;;;;;;;12.26;53.95;101799.81;5107092;27;20105;-63
2023/03/15 10:49:13;;;;;;;5.75;2.00;;;;;;;12.37;53.91;101802.59;5105856;28;20024;-62
2023/03/15 10:51:47;;;;;;;7.38;1.90;;;;;;;12.40;48.37;101807.69;5111084;28;20036;-62
2023/03/15 10:54:21;;;;;;;5.45;1.80;;;;;;;12.81;52.05;101807.59;5111748;27;20127;-63
2023/03/15 10:56:58;;;;;;;6.95;1.75;;;;;;;12.71;50.27;101813.56;5108093;28;20097;-63
2023/03/15 10:59:26;;;;;;;4.78;1.50;;;;;;;12.87;50.22;101817.81;5110344;27;20031;-62
2023/03/15 11:02:06;;;;;;;5.28;1.77;;;;;;;13.02;46.37;101826.53;5106171;28;20024;-62
2023/03/15 11:04:32;;;;;;;5.88;2.03;;;;;;;13.22;46.51;101827.78;5108545;28;20035;-62
2023/03/15 11:07:02;;;;;;;4.10;1.92;;;;;;;13.48;49.25;101828.59;5113678;27;20038;-63
2023/03/15 11:09:38;;;;;;;7.03;2.10;;;;;;;13.71;50.60;101820.72;5106427;28;20443;-62
2023/03/15 11:12:07;;;;;;;7.65;2.15;;;;;;;13.96;48.40;101825.06;5101661;28;20040;-62
2023/03/15 11:14:43;;;;;;;6.70;1.80;;;;;;;14.05;50.77;101832.38;5100838;28;20032;-63
2023/03/15 11:17:25;;;;;;;3.85;1.90;;;;;;;14.21;50.64;101840.91;5110814;28;20043;-62